Sea Thames — V2BV1 — position and weather

sailwx.info

Track history (hours):
 
Tides and Currents Weather Stations Pressure Air Temp Water Temp Dewpoint Dewpoint Depression Visibility Wind Speed Wind Dir Waves Ship Positions

Sea Thames

Last reported at 2017-May-23 10:38 UTC. Time now 2017-May-23 12:35 UTC.
Position N 49°48' W 003°25'.

Length 87 m; draft 4 m.

Type: Cargo ship. MMSI: 304933000.

Date/timePositionNaut miles runAvg speedWind from/ knotsBaromVisibWave heightAir tempDewpointWater temp
2017-May-23 10:38N 49°48' W 003°25'1 9.9
2017-May-23 10:30N 49°49' W 003°23'510.0
2017-May-23 10:00N 49°51' W 003°16'9 9.7
2017-May-23 09:06N 49°56' W 003°05'1 9.3
2017-May-23 09:00N 49°57' W 003°04'5 9.1
2017-May-23 08:30N 49°59' W 002°58'4 8.2
2017-May-23 07:58N 50°01' W 002°51'97 8.7
2017-May-22 20:50N 50°27' W 000°26'3 9.2
2017-May-22 20:30N 50°28' W 000°21'4 8.6
2017-May-22 20:00N 50°29' W 000°15'4 8.1
2017-May-22 19:30N 50°30' W 000°09'4 7.8
2017-May-22 19:00N 50°32' W 000°03'4 7.4
2017-May-22 18:30N 50°33' E 000°02'4 7.3
2017-May-22 18:00N 50°34' E 000°08'4 7.4
2017-May-22 17:30N 50°35' E 000°13'4 7.5
2017-May-22 17:00N 50°36' E 000°19'4 8.0
2017-May-22 16:30N 50°37' E 000°25'4 8.8
2017-May-22 16:00N 50°38' E 000°32'5 9.2
2017-May-22 15:30N 50°41' E 000°38'5 9.8
2017-May-22 15:00N 50°44' E 000°44'1010.3
2017-May-22 13:59N 50°49' E 000°58'610.4
2017-May-22 13:27N 50°53' E 001°05'510.1
2017-May-22 12:57N 50°56' E 001°11'6 9.7
2017-May-22 12:21N 50°60' E 001°18'3 9.2
2017-May-22 12:00N 51°02' E 001°22'4 8.7
2017-May-22 11:30N 51°05' E 001°27'4 8.0
2017-May-22 11:00N 51°07' E 001°32'3 7.0
2017-May-22 10:30N 51°09' E 001°36'3 6.7
2017-May-22 10:00N 51°12' E 001°41'3 7.0
2017-May-22 09:30N 51°14' E 001°45'3 7.0
2017-May-22 09:00N 51°17' E 001°48'4 7.6
2017-May-22 08:30N 51°20' E 001°50'4 8.2
2017-May-22 08:00N 51°24' E 001°53'4 8.8
2017-May-22 07:30N 51°27' E 001°57'5 9.4
2017-May-22 07:00N 51°31' E 002°02'5 9.8
2017-May-22 06:30N 51°35' E 002°08'510.4
2017-May-22 06:00N 51°38' E 002°13'100 9.1
2017-May-21 19:04N 52°56' E 003°55'110.0
2017-May-21 19:00N 52°57' E 003°56'510.0
2017-May-21 18:30N 53°00' E 004°02'510.0
2017-May-21 18:00N 53°03' E 004°09'5 9.8
2017-May-21 17:28N 53°07' E 004°16'4 9.6
2017-May-21 17:00N 53°09' E 004°21'4 9.0
2017-May-21 16:30N 53°13' E 004°26'128 7.5
2017-May-20 23:24N 53°52' E 007°50'7 9.2
2017-May-20 22:37N 53°51' E 008°02'310.3
2017-May-20 22:22N 53°50' E 008°06'410.9
2017-May-20 21:57N 53°46' E 008°11'710.8
2017-May-20 21:21N 53°42' E 008°20'810.4
2017-May-20 20:36N 53°37' E 008°29'1 9.8
2017-May-20 20:29N 53°36' E 008°30'5 9.5
2017-May-20 20:00N 53°32' E 008°34'5 8.0
2017-May-20 19:23N 53°28' E 008°30'3 7.7
2017-May-20 18:58N 53°25' E 008°30'3 6.8
2017-May-20 18:31N 53°22' E 008°30'0 0.8
2017-May-20 17:57N 53°21' E 008°30'0 0.0
2017-May-20 17:30N 53°21' E 008°30'0 0.0
2017-May-20 17:00N 53°21' E 008°30'0 0.0
2017-May-20 16:30N 53°21' E 008°30'0 0.0
2017-May-20 16:00N 53°21' E 008°30'0 0.0
2017-May-20 15:24N 53°21' E 008°30'0 0.0
2017-May-20 15:00N 53°21' E 008°30'0 0.0
2017-May-20 13:59N 53°21' E 008°30'0 0.0
2017-May-20 13:26N 53°21' E 008°30'0 0.0
2017-May-20 12:59N 53°21' E 008°30'0 0.0
2017-May-20 12:28N 53°21' E 008°30'0 0.0
2017-May-20 11:53N 53°21' E 008°30'0 0.0
2017-May-20 11:29N 53°21' E 008°30'0 0.0
2017-May-20 10:59N 53°21' E 008°30'0 0.0
2017-May-20 10:30N 53°21' E 008°30'0 0.0
2017-May-20 09:48N 53°21' E 008°30'0 0.0
2017-May-20 09:12N 53°21' E 008°30'0 0.0
2017-May-20 08:50N 53°21' E 008°30'0 0.0
2017-May-20 08:29N 53°21' E 008°30'0 0.0
2017-May-20 07:58N 53°21' E 008°30'0 0.0
2017-May-20 07:25N 53°21' E 008°30'0 0.0
2017-May-20 07:00N 53°21' E 008°30'0 0.0
2017-May-20 06:27N 53°21' E 008°30'0 0.0
2017-May-20 05:56N 53°21' E 008°30'0 0.0
2017-May-20 05:27N 53°21' E 008°30'0 0.0
2017-May-20 04:59N 53°21' E 008°30'0 0.0
2017-May-20 04:27N 53°21' E 008°30'0 0.0
2017-May-20 03:45N 53°21' E 008°30'0 0.0
2017-May-20 03:30N 53°21' E 008°30'0 0.0
2017-May-20 02:59N 53°21' E 008°30'0 0.0
2017-May-20 02:29N 53°21' E 008°30'0 0.0
2017-May-20 01:58N 53°21' E 008°30'0 0.0
2017-May-20 01:26N 53°21' E 008°30'0 0.0
2017-May-20 00:56N 53°21' E 008°30'0 0.0
2017-May-20 00:29N 53°21' E 008°30'0 0.0
2017-May-19 23:59N 53°21' E 008°30'0 0.0
2017-May-19 23:28N 53°21' E 008°30'0 0.0
2017-May-19 22:58N 53°21' E 008°30'0 0.0
2017-May-19 22:30N 53°21' E 008°30'0 0.0
2017-May-19 22:00N 53°21' E 008°30'0 0.0
2017-May-19 21:28N 53°21' E 008°30'0 0.0
2017-May-19 21:00N 53°21' E 008°30'0 0.0
2017-May-19 20:28N 53°21' E 008°30'0 0.0
2017-May-19 19:59N 53°21' E 008°30'0 0.0
2017-May-19 19:28N 53°21' E 008°30'0 0.0
2017-May-19 18:47N 53°21' E 008°30'0 0.0
2017-May-19 18:27N 53°21' E 008°30'0 0.0
2017-May-19 17:56N 53°21' E 008°30'0 0.0
2017-May-19 17:27N 53°21' E 008°30'0 0.0
2017-May-19 16:57N 53°21' E 008°30'0 0.0
2017-May-19 16:30N 53°21' E 008°30'0 0.0
2017-May-19 16:00N 53°21' E 008°30'0 0.0
2017-May-19 15:29N 53°21' E 008°30'0 0.0
2017-May-19 14:59N 53°21' E 008°30'0 0.0
2017-May-19 13:52N 53°21' E 008°30'0 0.0
2017-May-19 13:28N 53°21' E 008°30'0 0.0
2017-May-19 12:58N 53°21' E 008°30'0 0.0
2017-May-19 12:22N 53°21' E 008°30'0 0.0
2017-May-19 11:55N 53°21' E 008°30'0 0.0
2017-May-19 11:25N 53°21' E 008°30'0 0.0
2017-May-19 10:59N 53°21' E 008°30'0 0.0
2017-May-19 10:29N 53°21' E 008°30'0 0.0
2017-May-19 09:59N 53°21' E 008°30'0 0.0
2017-May-19 09:28N 53°21' E 008°30'0 0.0
2017-May-19 08:52N 53°21' E 008°30'0 0.0
2017-May-19 08:21N 53°21' E 008°30'0 0.0
2017-May-19 07:56N 53°21' E 008°30'0 0.0
2017-May-19 07:27N 53°21' E 008°30'0 0.0
2017-May-19 06:57N 53°21' E 008°30'0 0.0
2017-May-19 06:27N 53°21' E 008°30'0 0.0
2017-May-19 05:58N 53°21' E 008°30'0 0.0
2017-May-19 05:21N 53°21' E 008°30'0 0.0
2017-May-19 05:00N 53°21' E 008°30'0 0.0
2017-May-19 04:29N 53°21' E 008°30'0 0.0
2017-May-19 03:59N 53°21' E 008°30'0 0.0
2017-May-19 03:28N 53°21' E 008°30'0 0.0
2017-May-19 02:52N 53°21' E 008°30'0 0.0
2017-May-19 02:22N 53°21' E 008°30'0 0.0
2017-May-19 01:58N 53°21' E 008°30'0 0.0
2017-May-19 01:27N 53°21' E 008°30'0 0.0
2017-May-19 01:00N 53°21' E 008°30'0 0.0
2017-May-19 00:28N 53°21' E 008°30'0 0.0
2017-May-18 23:58N 53°21' E 008°30'0 0.0
2017-May-18 23:28N 53°21' E 008°30'0 0.0
2017-May-18 23:00N 53°21' E 008°30'0 0.0
2017-May-18 22:28N 53°21' E 008°30'0 0.0
2017-May-18 21:59N 53°21' E 008°30'0 0.0
2017-May-18 21:27N 53°21' E 008°30'0 0.0
2017-May-18 21:00N 53°21' E 008°30'0 0.0
2017-May-18 20:30N 53°21' E 008°30'0 0.0
2017-May-18 19:58N 53°21' E 008°30'0 0.0
2017-May-18 19:29N 53°21' E 008°30'0 0.0
2017-May-18 18:58N 53°21' E 008°30'0 0.0
2017-May-18 18:29N 53°21' E 008°30'0 0.0
2017-May-18 17:54N 53°21' E 008°30'0 0.0
2017-May-18 17:21N 53°21' E 008°30'0 0.0
2017-May-18 16:51N 53°21' E 008°30'0 0.0
2017-May-18 16:27N 53°21' E 008°30'0 0.0
2017-May-18 16:00N 53°21' E 008°30'0 0.0
2017-May-18 15:28N 53°21' E 008°30'0 0.0
2017-May-18 15:01N 53°21' E 008°30'9 7.9
2017-May-18 13:54N 53°30' E 008°31'3 8.3
2017-May-18 13:30N 53°33' E 008°34'810.8
2017-May-18 12:47N 53°39' E 008°25'410.7
2017-May-18 12:24N 53°42' E 008°20'102 8.3
2017-May-18 00:02N 53°34' E 005°29'0 9.3
2017-May-18 00:01N 53°34' E 005°28'5 9.5
2017-May-17 23:30N 53°32' E 005°21'32 9.6
2017-May-17 20:07N 53°14' E 004°36'310.9
2017-May-17 19:51N 53°11' E 004°33'810.6
2017-May-17 19:06N 53°05' E 004°26'210.6
2017-May-17 18:52N 53°02' E 004°24'410.0
2017-May-17 18:30N 52°59' E 004°21'510.0
2017-May-17 18:01N 52°55' E 004°18'5 9.4
2017-May-17 17:31N 52°51' E 004°14'5 9.4
2017-May-17 17:00N 52°47' E 004°10'5 9.1
2017-May-17 16:30N 52°43' E 004°06'4 8.7
2017-May-17 16:00N 52°39' E 004°02'4 8.5
2017-May-17 15:31N 52°35' E 003°59'5 8.3
2017-May-17 14:55N 52°31' E 003°54'8 8.4
2017-May-17 13:59N 52°24' E 003°53'4 8.2
2017-May-17 13:31N 52°20' E 003°51'4 8.3
2017-May-17 13:00N 52°16' E 003°53'4 8.3
2017-May-17 12:30N 52°11' E 003°54'4 8.4
2017-May-17 12:01N 52°07' E 003°55'4 8.1
2017-May-17 11:31N 52°04' E 003°53'4 7.6
2017-May-17 11:01N 52°00' E 003°50'4 7.2
2017-May-17 10:31N 51°57' E 003°48'1 1.0
2017-May-17 09:59N 51°56' E 003°48'0 0.1
2017-May-17 09:20N 51°56' E 003°48'0 0.0
2017-May-17 08:46N 51°56' E 003°48'0 0.1
2017-May-17 08:30N 51°56' E 003°48'0 0.0
2017-May-17 08:00N 51°56' E 003°48'0 0.0
2017-May-17 07:26N 51°56' E 003°48'0 0.0
2017-May-17 07:00N 51°56' E 003°48'0 0.0
2017-May-17 05:37N 51°56' E 003°48'0 0.0
2017-May-17 05:11N 51°56' E 003°48'0 0.0
2017-May-17 05:00N 51°56' E 003°48'0 0.0
2017-May-17 04:30N 51°56' E 003°48'0 0.0
2017-May-17 03:22N 51°56' E 003°48'0 0.1
2017-May-17 02:57N 51°56' E 003°48'0 0.0
2017-May-17 02:13N 51°56' E 003°48'0 0.1
2017-May-17 01:52N 51°56' E 003°48'0 0.1
2017-May-17 01:19N 51°56' E 003°48'0 0.0
2017-May-17 00:56N 51°56' E 003°48'0 0.0
2017-May-17 00:17N 51°56' E 003°48'0 0.0
2017-May-16 23:59N 51°56' E 003°48'0 0.0
2017-May-16 23:29N 51°56' E 003°48'0 0.0
2017-May-16 22:13N 51°56' E 003°48'0 0.1
2017-May-16 21:48N 51°56' E 003°48'0 0.1
2017-May-16 21:20N 51°56' E 003°48'0 0.0
2017-May-16 20:56N 51°56' E 003°48'0 0.0
2017-May-16 20:23N 51°56' E 003°48'0 0.0
2017-May-16 19:56N 51°56' E 003°48'0 0.0
2017-May-16 19:28N 51°56' E 003°48'0 0.0
2017-May-16 18:56N 51°56' E 003°48'0 0.0
2017-May-16 17:57N 51°56' E 003°48'0 0.0
2017-May-16 17:23N 51°56' E 003°48'0 0.0
2017-May-16 17:00N 51°56' E 003°48'0 0.0
2017-May-16 16:28N 51°56' E 003°48'2 3.8
2017-May-16 16:00N 51°57' E 003°45'4 8.0
2017-May-16 15:29N 51°57' E 003°38'4 7.6
2017-May-16 15:00N 51°56' E 003°32'4 7.3
2017-May-16 14:29N 51°55' E 003°26'7 6.7
2017-May-16 13:22N 51°53' E 003°15'21 6.2
2017-May-16 09:54N 51°47' E 002°42'12 8.2
2017-May-16 08:24N 51°39' E 002°27'4 8.6
2017-May-16 07:56N 51°36' E 002°23'4 9.5
2017-May-16 07:29N 51°32' E 002°19'5 9.2
2017-May-16 07:00N 51°29' E 002°14'4 8.1
2017-May-16 06:30N 51°25' E 002°11'4 8.3
2017-May-16 06:00N 51°21' E 002°09'4 8.4
2017-May-16 05:30N 51°17' E 002°06'4 8.7
2017-May-16 05:00N 51°14' E 002°02'5 9.2
2017-May-16 04:31N 51°11' E 001°56'5 9.4
2017-May-16 04:00N 51°09' E 001°50'510.0
2017-May-16 03:30N 51°06' E 001°43'510.5
2017-May-16 03:00N 51°02' E 001°37'187 6.9
2017-May-15 00:03N 49°50' W 002°54'1 7.6
2017-May-14 23:56N 49°50' W 002°55'8 7.9
2017-May-14 22:52N 49°46' W 003°07'3 8.0
2017-May-14 22:30N 49°45' W 003°11'5 8.1
2017-May-14 21:56N 49°42' W 003°17'157 7.1
2017-May-13 23:43N 47°42' W 005°50'  
Track history (hours):
 
Tides and Currents Weather Stations Pressure Air Temp Water Temp Dewpoint Dewpoint Depression Visibility Wind Speed Wind Dir Waves Ship Positions

Sea Thames

Last reported at 2017-May-23 10:38 UTC. Time now 2017-May-23 12:35 UTC.
Position N 49°48' W 003°25'.

Length 87 m; draft 4 m.

Type: Cargo ship. MMSI: 304933000.

Date/timePositionNaut miles runAvg speedWind from/ knotsBaromVisibWave heightAir tempDewpointWater temp
2017-May-23 10:38N 49°48' W 003°25'1 9.9
2017-May-23 10:30N 49°49' W 003°23'510.0
2017-May-23 10:00N 49°51' W 003°16'9 9.7
2017-May-23 09:06N 49°56' W 003°05'1 9.3
2017-May-23 09:00N 49°57' W 003°04'5 9.1
2017-May-23 08:30N 49°59' W 002°58'4 8.2
2017-May-23 07:58N 50°01' W 002°51'97 8.7
2017-May-22 20:50N 50°27' W 000°26'3 9.2
2017-May-22 20:30N 50°28' W 000°21'4 8.6
2017-May-22 20:00N 50°29' W 000°15'4 8.1
2017-May-22 19:30N 50°30' W 000°09'4 7.8
2017-May-22 19:00N 50°32' W 000°03'4 7.4
2017-May-22 18:30N 50°33' E 000°02'4 7.3
2017-May-22 18:00N 50°34' E 000°08'4 7.4
2017-May-22 17:30N 50°35' E 000°13'4 7.5
2017-May-22 17:00N 50°36' E 000°19'4 8.0
2017-May-22 16:30N 50°37' E 000°25'4 8.8
2017-May-22 16:00N 50°38' E 000°32'5 9.2
2017-May-22 15:30N 50°41' E 000°38'5 9.8
2017-May-22 15:00N 50°44' E 000°44'1010.3
2017-May-22 13:59N 50°49' E 000°58'610.4
2017-May-22 13:27N 50°53' E 001°05'510.1
2017-May-22 12:57N 50°56' E 001°11'6 9.7
2017-May-22 12:21N 50°60' E 001°18'3 9.2
2017-May-22 12:00N 51°02' E 001°22'4 8.7
2017-May-22 11:30N 51°05' E 001°27'4 8.0
2017-May-22 11:00N 51°07' E 001°32'3 7.0
2017-May-22 10:30N 51°09' E 001°36'3 6.7
2017-May-22 10:00N 51°12' E 001°41'3 7.0
2017-May-22 09:30N 51°14' E 001°45'3 7.0
2017-May-22 09:00N 51°17' E 001°48'4 7.6
2017-May-22 08:30N 51°20' E 001°50'4 8.2
2017-May-22 08:00N 51°24' E 001°53'4 8.8
2017-May-22 07:30N 51°27' E 001°57'5 9.4
2017-May-22 07:00N 51°31' E 002°02'5 9.8
2017-May-22 06:30N 51°35' E 002°08'510.4
2017-May-22 06:00N 51°38' E 002°13'100 9.1
2017-May-21 19:04N 52°56' E 003°55'110.0
2017-May-21 19:00N 52°57' E 003°56'510.0
2017-May-21 18:30N 53°00' E 004°02'510.0
2017-May-21 18:00N 53°03' E 004°09'5 9.8
2017-May-21 17:28N 53°07' E 004°16'4 9.6
2017-May-21 17:00N 53°09' E 004°21'4 9.0
2017-May-21 16:30N 53°13' E 004°26'128 7.5
2017-May-20 23:24N 53°52' E 007°50'7 9.2
2017-May-20 22:37N 53°51' E 008°02'310.3
2017-May-20 22:22N 53°50' E 008°06'410.9
2017-May-20 21:57N 53°46' E 008°11'710.8
2017-May-20 21:21N 53°42' E 008°20'810.4
2017-May-20 20:36N 53°37' E 008°29'1 9.8
2017-May-20 20:29N 53°36' E 008°30'5 9.5
2017-May-20 20:00N 53°32' E 008°34'5 8.0
2017-May-20 19:23N 53°28' E 008°30'3 7.7
2017-May-20 18:58N 53°25' E 008°30'3 6.8
2017-May-20 18:31N 53°22' E 008°30'0 0.8
2017-May-20 17:57N 53°21' E 008°30'0 0.0
2017-May-20 17:30N 53°21' E 008°30'0 0.0
2017-May-20 17:00N 53°21' E 008°30'0 0.0
2017-May-20 16:30N 53°21' E 008°30'0 0.0
2017-May-20 16:00N 53°21' E 008°30'0 0.0
2017-May-20 15:24N 53°21' E 008°30'0 0.0
2017-May-20 15:00N 53°21' E 008°30'0 0.0
2017-May-20 13:59N 53°21' E 008°30'0 0.0
2017-May-20 13:26N 53°21' E 008°30'0 0.0
2017-May-20 12:59N 53°21' E 008°30'0 0.0
2017-May-20 12:28N 53°21' E 008°30'0 0.0
2017-May-20 11:53N 53°21' E 008°30'0 0.0
2017-May-20 11:29N 53°21' E 008°30'0 0.0
2017-May-20 10:59N 53°21' E 008°30'0 0.0
2017-May-20 10:30N 53°21' E 008°30'0 0.0
2017-May-20 09:48N 53°21' E 008°30'0 0.0
2017-May-20 09:12N 53°21' E 008°30'0 0.0
2017-May-20 08:50N 53°21' E 008°30'0 0.0
2017-May-20 08:29N 53°21' E 008°30'0 0.0
2017-May-20 07:58N 53°21' E 008°30'0 0.0
2017-May-20 07:25N 53°21' E 008°30'0 0.0
2017-May-20 07:00N 53°21' E 008°30'0 0.0
2017-May-20 06:27N 53°21' E 008°30'0 0.0
2017-May-20 05:56N 53°21' E 008°30'0 0.0
2017-May-20 05:27N 53°21' E 008°30'0 0.0
2017-May-20 04:59N 53°21' E 008°30'0 0.0
2017-May-20 04:27N 53°21' E 008°30'0 0.0
2017-May-20 03:45N 53°21' E 008°30'0 0.0
2017-May-20 03:30N 53°21' E 008°30'0 0.0
2017-May-20 02:59N 53°21' E 008°30'0 0.0
2017-May-20 02:29N 53°21' E 008°30'0 0.0
2017-May-20 01:58N 53°21' E 008°30'0 0.0
2017-May-20 01:26N 53°21' E 008°30'0 0.0
2017-May-20 00:56N 53°21' E 008°30'0 0.0
2017-May-20 00:29N 53°21' E 008°30'0 0.0
2017-May-19 23:59N 53°21' E 008°30'0 0.0
2017-May-19 23:28N 53°21' E 008°30'0 0.0
2017-May-19 22:58N 53°21' E 008°30'0 0.0
2017-May-19 22:30N 53°21' E 008°30'0 0.0
2017-May-19 22:00N 53°21' E 008°30'0 0.0
2017-May-19 21:28N 53°21' E 008°30'0 0.0
2017-May-19 21:00N 53°21' E 008°30'0 0.0
2017-May-19 20:28N 53°21' E 008°30'0 0.0
2017-May-19 19:59N 53°21' E 008°30'0 0.0
2017-May-19 19:28N 53°21' E 008°30'0 0.0
2017-May-19 18:47N 53°21' E 008°30'0 0.0
2017-May-19 18:27N 53°21' E 008°30'0 0.0
2017-May-19 17:56N 53°21' E 008°30'0 0.0
2017-May-19 17:27N 53°21' E 008°30'0 0.0
2017-May-19 16:57N 53°21' E 008°30'0 0.0
2017-May-19 16:30N 53°21' E 008°30'0 0.0
2017-May-19 16:00N 53°21' E 008°30'0 0.0
2017-May-19 15:29N 53°21' E 008°30'0 0.0
2017-May-19 14:59N 53°21' E 008°30'0 0.0
2017-May-19 13:52N 53°21' E 008°30'0 0.0
2017-May-19 13:28N 53°21' E 008°30'0 0.0
2017-May-19 12:58N 53°21' E 008°30'0 0.0
2017-May-19 12:22N 53°21' E 008°30'0 0.0
2017-May-19 11:55N 53°21' E 008°30'0 0.0
2017-May-19 11:25N 53°21' E 008°30'0 0.0
2017-May-19 10:59N 53°21' E 008°30'0 0.0
2017-May-19 10:29N 53°21' E 008°30'0 0.0
2017-May-19 09:59N 53°21' E 008°30'0 0.0
2017-May-19 09:28N 53°21' E 008°30'0 0.0
2017-May-19 08:52N 53°21' E 008°30'0 0.0
2017-May-19 08:21N 53°21' E 008°30'0 0.0
2017-May-19 07:56N 53°21' E 008°30'0 0.0
2017-May-19 07:27N 53°21' E 008°30'0 0.0
2017-May-19 06:57N 53°21' E 008°30'0 0.0
2017-May-19 06:27N 53°21' E 008°30'0 0.0
2017-May-19 05:58N 53°21' E 008°30'0 0.0
2017-May-19 05:21N 53°21' E 008°30'0 0.0
2017-May-19 05:00N 53°21' E 008°30'0 0.0
2017-May-19 04:29N 53°21' E 008°30'0 0.0
2017-May-19 03:59N 53°21' E 008°30'0 0.0
2017-May-19 03:28N 53°21' E 008°30'0 0.0
2017-May-19 02:52N 53°21' E 008°30'0 0.0
2017-May-19 02:22N 53°21' E 008°30'0 0.0
2017-May-19 01:58N 53°21' E 008°30'0 0.0
2017-May-19 01:27N 53°21' E 008°30'0 0.0
2017-May-19 01:00N 53°21' E 008°30'0 0.0
2017-May-19 00:28N 53°21' E 008°30'0 0.0
2017-May-18 23:58N 53°21' E 008°30'0 0.0
2017-May-18 23:28N 53°21' E 008°30'0 0.0
2017-May-18 23:00N 53°21' E 008°30'0 0.0
2017-May-18 22:28N 53°21' E 008°30'0 0.0
2017-May-18 21:59N 53°21' E 008°30'0 0.0
2017-May-18 21:27N 53°21' E 008°30'0 0.0
2017-May-18 21:00N 53°21' E 008°30'0 0.0
2017-May-18 20:30N 53°21' E 008°30'0 0.0
2017-May-18 19:58N 53°21' E 008°30'0 0.0
2017-May-18 19:29N 53°21' E 008°30'0 0.0
2017-May-18 18:58N 53°21' E 008°30'0 0.0
2017-May-18 18:29N 53°21' E 008°30'0 0.0
2017-May-18 17:54N 53°21' E 008°30'0 0.0
2017-May-18 17:21N 53°21' E 008°30'0 0.0
2017-May-18 16:51N 53°21' E 008°30'0 0.0
2017-May-18 16:27N 53°21' E 008°30'0 0.0
2017-May-18 16:00N 53°21' E 008°30'0 0.0
2017-May-18 15:28N 53°21' E 008°30'0 0.0
2017-May-18 15:01N 53°21' E 008°30'9 7.9
2017-May-18 13:54N 53°30' E 008°31'3 8.3
2017-May-18 13:30N 53°33' E 008°34'810.8
2017-May-18 12:47N 53°39' E 008°25'410.7
2017-May-18 12:24N 53°42' E 008°20'102 8.3
2017-May-18 00:02N 53°34' E 005°29'0 9.3
2017-May-18 00:01N 53°34' E 005°28'5 9.5
2017-May-17 23:30N 53°32' E 005°21'32 9.6
2017-May-17 20:07N 53°14' E 004°36'310.9
2017-May-17 19:51N 53°11' E 004°33'810.6
2017-May-17 19:06N 53°05' E 004°26'210.6
2017-May-17 18:52N 53°02' E 004°24'410.0
2017-May-17 18:30N 52°59' E 004°21'510.0
2017-May-17 18:01N 52°55' E 004°18'5 9.4
2017-May-17 17:31N 52°51' E 004°14'5 9.4
2017-May-17 17:00N 52°47' E 004°10'5 9.1
2017-May-17 16:30N 52°43' E 004°06'4 8.7
2017-May-17 16:00N 52°39' E 004°02'4 8.5
2017-May-17 15:31N 52°35' E 003°59'5 8.3
2017-May-17 14:55N 52°31' E 003°54'8 8.4
2017-May-17 13:59N 52°24' E 003°53'4 8.2
2017-May-17 13:31N 52°20' E 003°51'4 8.3
2017-May-17 13:00N 52°16' E 003°53'4 8.3
2017-May-17 12:30N 52°11' E 003°54'4 8.4
2017-May-17 12:01N 52°07' E 003°55'4 8.1
2017-May-17 11:31N 52°04' E 003°53'4 7.6
2017-May-17 11:01N 52°00' E 003°50'4 7.2
2017-May-17 10:31N 51°57' E 003°48'1 1.0
2017-May-17 09:59N 51°56' E 003°48'0 0.1
2017-May-17 09:20N 51°56' E 003°48'0 0.0
2017-May-17 08:46N 51°56' E 003°48'0 0.1
2017-May-17 08:30N 51°56' E 003°48'0 0.0
2017-May-17 08:00N 51°56' E 003°48'0 0.0
2017-May-17 07:26N 51°56' E 003°48'0 0.0
2017-May-17 07:00N 51°56' E 003°48'0 0.0
2017-May-17 05:37N 51°56' E 003°48'0 0.0
2017-May-17 05:11N 51°56' E 003°48'0 0.0
2017-May-17 05:00N 51°56' E 003°48'0 0.0
2017-May-17 04:30N 51°56' E 003°48'0 0.0
2017-May-17 03:22N 51°56' E 003°48'0 0.1
2017-May-17 02:57N 51°56' E 003°48'0 0.0
2017-May-17 02:13N 51°56' E 003°48'0 0.1
2017-May-17 01:52N 51°56' E 003°48'0 0.1
2017-May-17 01:19N 51°56' E 003°48'0 0.0
2017-May-17 00:56N 51°56' E 003°48'0 0.0
2017-May-17 00:17N 51°56' E 003°48'0 0.0
2017-May-16 23:59N 51°56' E 003°48'0 0.0
2017-May-16 23:29N 51°56' E 003°48'0 0.0
2017-May-16 22:13N 51°56' E 003°48'0 0.1
2017-May-16 21:48N 51°56' E 003°48'0 0.1
2017-May-16 21:20N 51°56' E 003°48'0 0.0
2017-May-16 20:56N 51°56' E 003°48'0 0.0
2017-May-16 20:23N 51°56' E 003°48'0 0.0
2017-May-16 19:56N 51°56' E 003°48'0 0.0
2017-May-16 19:28N 51°56' E 003°48'0 0.0
2017-May-16 18:56N 51°56' E 003°48'0 0.0
2017-May-16 17:57N 51°56' E 003°48'0 0.0
2017-May-16 17:23N 51°56' E 003°48'0 0.0
2017-May-16 17:00N 51°56' E 003°48'0 0.0
2017-May-16 16:28N 51°56' E 003°48'2 3.8
2017-May-16 16:00N 51°57' E 003°45'4 8.0
2017-May-16 15:29N 51°57' E 003°38'4 7.6
2017-May-16 15:00N 51°56' E 003°32'4 7.3
2017-May-16 14:29N 51°55' E 003°26'7 6.7
2017-May-16 13:22N 51°53' E 003°15'21 6.2
2017-May-16 09:54N 51°47' E 002°42'12 8.2
2017-May-16 08:24N 51°39' E 002°27'4 8.6
2017-May-16 07:56N 51°36' E 002°23'4 9.5
2017-May-16 07:29N 51°32' E 002°19'5 9.2
2017-May-16 07:00N 51°29' E 002°14'4 8.1
2017-May-16 06:30N 51°25' E 002°11'4 8.3
2017-May-16 06:00N 51°21' E 002°09'4 8.4
2017-May-16 05:30N 51°17' E 002°06'4 8.7
2017-May-16 05:00N 51°14' E 002°02'5 9.2
2017-May-16 04:31N 51°11' E 001°56'5 9.4
2017-May-16 04:00N 51°09' E 001°50'510.0
2017-May-16 03:30N 51°06' E 001°43'510.5
2017-May-16 03:00N 51°02' E 001°37'187 6.9
2017-May-15 00:03N 49°50' W 002°54'1 7.6
2017-May-14 23:56N 49°50' W 002°55'8 7.9
2017-May-14 22:52N 49°46' W 003°07'3 8.0
2017-May-14 22:30N 49°45' W 003°11'5 8.1
2017-May-14 21:56N 49°42' W 003°17'157 7.1
2017-May-13 23:43N 47°42' W 005°50'  

Dump ship's entire track history